Time;durP1;ratioP1;P1;durP2;ratioP2;P2;SDS_P1;SDS_P2;PMS_P1;PMS_P2;Temp;Humidity;BMP_temperature;BMP_pressure;BME280_temperature;BME280_humidity;BME280_pressure;Samples;Min_cycle;Max_cycle;Signal;HPM_P1;HPM_P2
2023/03/12 00:01:54;;;;;;;9.85;6.22;;;1.50;99.90;;;;;;5004037;28;20188;-73
2023/03/12 00:04:19;;;;;;;10.70;5.88;;;1.50;99.90;;;;;;5007531;28;20049;-73
2023/03/12 00:06:45;;;;;;;10.98;6.70;;;1.60;99.90;;;;;;5004008;28;20029;-74
2023/03/12 00:09:11;;;;;;;9.52;5.30;;;1.60;99.90;;;;;;5002280;28;20042;-74
2023/03/12 00:11:37;;;;;;;11.18;5.85;;;1.60;99.90;;;;;;5001370;28;20430;-73
2023/03/12 00:14:02;;;;;;;13.60;6.63;;;1.70;99.90;;;;;;5001896;28;20034;-73
2023/03/12 00:16:29;;;;;;;10.05;5.72;;;1.80;99.90;;;;;;5004122;28;20027;-73
2023/03/12 00:18:55;;;;;;;12.25;5.65;;;1.80;99.90;;;;;;5002463;28;20033;-74
2023/03/12 00:21:21;;;;;;;9.38;5.70;;;1.80;99.90;;;;;;4987588;28;20113;-74
2023/03/12 00:23:48;;;;;;;10.30;6.00;;;1.80;99.90;;;;;;5001115;28;20050;-72
2023/03/12 00:26:14;;;;;;;9.60;5.75;;;1.80;99.90;;;;;;5000153;28;20117;-71
2023/03/12 00:28:41;;;;;;;9.48;6.47;;;1.80;99.90;;;;;;4987326;28;20030;-72
2023/03/12 00:31:19;;;;;;;9.63;6.43;;;1.80;99.90;;;;;;4998981;28;20032;-73
2023/03/12 00:33:48;;;;;;;12.02;6.80;;;1.80;99.90;;;;;;5003900;28;20038;-72
2023/03/12 00:36:14;;;;;;;12.13;7.20;;;1.70;99.90;;;;;;5001915;28;20025;-72
2023/03/12 00:38:40;;;;;;;13.85;7.47;;;1.70;99.90;;;;;;5001456;28;20061;-72
2023/03/12 00:41:06;;;;;;;11.25;7.15;;;1.70;99.90;;;;;;5006366;28;20062;-72
2023/03/12 00:43:31;;;;;;;10.70;7.35;;;1.60;99.90;;;;;;5007530;28;20030;-72
2023/03/12 00:45:57;;;;;;;10.90;7.18;;;1.60;99.90;;;;;;4985582;28;20104;-72
2023/03/12 00:48:24;;;;;;;14.25;7.90;;;1.60;99.90;;;;;;5009724;28;20090;-72
2023/03/12 00:50:49;;;;;;;11.90;8.38;;;1.70;99.90;;;;;;5003349;28;20092;-72
2023/03/12 00:53:15;;;;;;;13.85;8.40;;;1.60;99.90;;;;;;4985744;28;20034;-72
2023/03/12 00:55:41;;;;;;;16.98;8.65;;;1.60;99.90;;;;;;4999719;28;20085;-72
2023/03/12 00:58:06;;;;;;;14.00;8.52;;;1.60;99.90;;;;;;5004484;28;20034;-72
2023/03/12 01:00:32;;;;;;;14.35;8.23;;;1.70;99.90;;;;;;5000424;28;20129;-73
2023/03/12 01:02:58;;;;;;;19.10;9.05;;;1.70;99.90;;;;;;5004468;28;20036;-73
2023/03/12 01:05:24;;;;;;;15.57;9.02;;;1.70;99.90;;;;;;5001301;28;20549;-73
2023/03/12 01:07:50;;;;;;;15.95;8.88;;;1.70;99.90;;;;;;5003546;28;20033;-73
2023/03/12 01:10:17;;;;;;;14.82;9.15;;;1.70;99.90;;;;;;4997979;28;20109;-74
2023/03/12 01:12:43;;;;;;;15.70;9.77;;;1.70;99.90;;;;;;5001547;28;20034;-72
2023/03/12 01:15:11;;;;;;;15.82;9.68;;;1.70;99.90;;;;;;5002787;28;20022;-72
2023/03/12 01:17:37;;;;;;;18.75;9.63;;;1.60;99.90;;;;;;5002010;28;20037;-72
2023/03/12 01:20:04;;;;;;;16.50;9.35;;;1.60;99.90;;;;;;4998187;28;20034;-72
2023/03/12 01:22:30;;;;;;;13.60;8.90;;;1.70;99.90;;;;;;5005149;28;20033;-72
2023/03/12 01:24:56;;;;;;;15.35;9.25;;;1.60;99.90;;;;;;5001997;28;20410;-72
2023/03/12 01:27:22;;;;;;;15.10;8.68;;;1.70;99.90;;;;;;5003683;28;20292;-72
2023/03/12 01:29:47;;;;;;;18.13;8.90;;;1.60;99.90;;;;;;5002852;28;20030;-72
2023/03/12 01:32:13;;;;;;;15.70;9.02;;;1.60;99.90;;;;;;5005748;28;20018;-71
2023/03/12 01:34:39;;;;;;;14.98;9.00;;;1.60;99.90;;;;;;5001398;28;20023;-71
2023/03/12 01:37:05;;;;;;;14.57;8.35;;;1.60;99.90;;;;;;5001342;28;20284;-72
2023/03/12 01:39:31;;;;;;;14.07;8.88;;;1.60;99.90;;;;;;5004093;28;20030;-72
2023/03/12 01:41:57;;;;;;;21.92;10.20;;;1.60;99.90;;;;;;5002098;28;20033;-72
2023/03/12 01:44:23;;;;;;;14.05;9.10;;;1.60;99.90;;;;;;5002744;28;20030;-71
2023/03/12 01:46:48;;;;;;;16.95;10.00;;;1.60;99.90;;;;;;5003561;28;20030;-71
2023/03/12 01:49:25;;;;;;;15.43;9.40;;;1.60;99.90;;;;;;5004101;28;20058;-71
2023/03/12 01:52:12;;;;;;;17.83;9.25;;;1.60;99.90;;;;;;5002544;28;20030;-72
2023/03/12 01:54:47;;;;;;;15.10;9.80;;;1.60;99.90;;;;;;5004203;28;20033;-71
2023/03/12 01:57:26;;;;;;;15.50;9.93;;;1.50;99.90;;;;;;4999186;28;20227;-72
2023/03/12 01:59:56;;;;;;;19.00;9.73;;;1.50;99.90;;;;;;5004929;28;20355;-71
2023/03/12 02:02:25;;;;;;;19.40;9.67;;;1.50;99.90;;;;;;5003375;28;20026;-72
2023/03/12 02:05:01;;;;;;;15.00;9.27;;;1.60;99.90;;;;;;5003833;28;20022;-72
2023/03/12 02:07:27;;;;;;;12.50;9.23;;;1.60;99.90;;;;;;5001191;28;20073;-72
2023/03/12 02:09:52;;;;;;;19.23;9.77;;;1.60;99.90;;;;;;5000879;28;20490;-72
2023/03/12 02:12:18;;;;;;;15.60;9.38;;;1.70;99.90;;;;;;4998766;28;20033;-72
2023/03/12 02:14:44;;;;;;;18.77;9.90;;;1.70;99.90;;;;;;5001509;28;20414;-72
2023/03/12 02:17:11;;;;;;;15.52;8.65;;;1.70;99.90;;;;;;5006097;28;20105;-72
2023/03/12 02:19:56;;;;;;;19.17;8.50;;;1.70;99.90;;;;;;5001710;28;20492;-72
2023/03/12 02:22:23;;;;;;;16.30;7.85;;;1.70;99.90;;;;;;5002685;28;20393;-71
2023/03/12 02:25:23;;;;;;;13.38;6.97;;;1.60;99.90;;;;;;5004338;28;20418;-72
2023/03/12 02:27:49;;;;;;;11.25;7.10;;;1.60;99.90;;;;;;5001223;28;20529;-71
2023/03/12 02:30:16;;;;;;;11.82;6.80;;;1.60;99.90;;;;;;5002532;28;20158;-73
2023/03/12 02:32:44;;;;;;;13.20;6.85;;;1.60;99.90;;;;;;4999613;28;20049;-73
2023/03/12 02:35:10;;;;;;;12.38;5.93;;;1.70;99.90;;;;;;5000671;28;20022;-72
2023/03/12 02:37:47;;;;;;;10.82;6.20;;;1.70;99.90;;;;;;5005374;28;20026;-72
2023/03/12 02:40:28;;;;;;;15.13;7.45;;;1.70;99.90;;;;;;5004802;28;20027;-71
2023/03/12 02:42:54;;;;;;;;;;;1.70;99.90;;;;;;5002481;28;20027;-71
2023/03/12 02:45:20;;;;;;;11.75;5.65;;;1.70;99.90;;;;;;5003488;28;19928;-73
2023/03/12 02:47:46;;;;;;;10.57;5.72;;;1.70;99.90;;;;;;5007756;28;20029;-73
2023/03/12 02:50:11;;;;;;;10.77;5.85;;;1.60;99.90;;;;;;4997484;28;20367;-74
2023/03/12 02:52:37;;;;;;;12.10;6.00;;;1.60;99.90;;;;;;5002104;28;20037;-72
2023/03/12 02:55:07;;;;;;;12.38;6.22;;;1.50;99.90;;;;;;4999696;28;20029;-71
2023/03/12 02:57:36;;;;;;;15.40;6.15;;;1.50;99.90;;;;;;5003585;28;20369;-71
2023/03/12 03:00:05;;;;;;;10.13;6.50;;;1.50;99.90;;;;;;5001952;28;20030;-72
2023/03/12 03:02:31;;;;;;;12.02;6.68;;;1.40;99.90;;;;;;5000086;28;20113;-71
2023/03/12 03:04:56;;;;;;;10.07;6.03;;;1.40;99.90;;;;;;5003776;28;20104;-71
2023/03/12 03:07:22;;;;;;;14.70;6.18;;;1.40;99.90;;;;;;5004018;28;20030;-72
2023/03/12 03:09:48;;;;;;;15.10;7.93;;;1.40;99.90;;;;;;5001969;28;20137;-72
2023/03/12 03:12:14;;;;;;;16.80;7.75;;;1.30;99.90;;;;;;4988730;28;20031;-72
2023/03/12 03:14:39;;;;;;;11.13;6.80;;;1.30;99.90;;;;;;5020295;23;20049;-76
2023/03/12 03:17:05;;;;;;;11.02;6.95;;;1.30;99.90;;;;;;5003918;28;20469;-74
2023/03/12 03:19:31;;;;;;;12.73;7.22;;;1.30;99.90;;;;;;4988681;28;20030;-75
2023/03/12 03:21:56;;;;;;;10.63;6.50;;;1.30;99.90;;;;;;5004820;28;20038;-75
2023/03/12 03:24:22;;;;;;;13.77;7.38;;;1.30;99.90;;;;;;5007086;28;20017;-75
2023/03/12 03:26:48;;;;;;;14.15;7.72;;;1.30;99.90;;;;;;4989220;28;20026;-75
2023/03/12 03:29:14;;;;;;;13.63;7.43;;;1.30;99.90;;;;;;5005258;28;20505;-75
2023/03/12 03:31:39;;;;;;;14.82;7.35;;;1.40;99.90;;;;;;5005937;28;20026;-75
2023/03/12 03:34:05;;;;;;;16.30;7.55;;;1.40;99.90;;;;;;5006065;28;20023;-75
2023/03/12 03:36:31;;;;;;;12.18;7.00;;;1.40;99.90;;;;;;5015098;28;20030;-75
2023/03/12 03:38:56;;;;;;;10.43;6.80;;;1.40;99.90;;;;;;5002914;28;20396;-75
2023/03/12 03:41:22;;;;;;;19.25;7.65;;;1.30;99.90;;;;;;5010254;28;20025;-74
2023/03/12 03:43:48;;;;;;;14.25;7.68;;;1.40;99.90;;;;;;5004471;28;20041;-75
2023/03/12 03:46:14;;;;;;;11.23;6.47;;;1.40;99.90;;;;;;4988908;28;20429;-74
2023/03/12 03:48:40;;;;;;;10.35;6.28;;;1.40;99.90;;;;;;5006445;28;20040;-75
2023/03/12 03:51:07;;;;;;;12.20;6.40;;;1.40;99.90;;;;;;5008660;28;20031;-75
2023/03/12 03:53:33;;;;;;;9.70;6.45;;;1.40;99.90;;;;;;5005145;28;20580;-75
2023/03/12 03:56:14;;;;;;;9.13;5.65;;;1.40;99.90;;;;;;5005388;28;20050;-75
2023/03/12 03:58:39;;;;;;;14.60;6.07;;;1.30;99.90;;;;;;5012686;28;20041;-75
2023/03/12 04:01:05;;;;;;;10.95;5.93;;;1.40;99.90;;;;;;5008743;28;20026;-75
2023/03/12 04:03:32;;;;;;;10.85;6.47;;;1.30;99.90;;;;;;5008927;28;20041;-75
2023/03/12 04:06:02;;;;;;;11.07;5.97;;;1.30;99.90;;;;;;5009006;28;20109;-75
2023/03/12 04:08:28;;;;;;;9.45;5.63;;;1.30;99.90;;;;;;5004594;28;20305;-75
2023/03/12 04:10:54;;;;;;;12.50;6.47;;;1.20;99.90;;;;;;5007624;28;20038;-75
2023/03/12 04:13:20;;;;;;;8.70;5.60;;;1.20;99.90;;;;;;5005808;28;20524;-75
2023/03/12 04:15:52;;;;;;;13.18;6.28;;;1.10;99.90;;;;;;5012881;28;20069;-75
2023/03/12 04:18:18;;;;;;;9.00;5.82;;;1.20;99.90;;;;;;5007347;28;20049;-75
2023/03/12 04:20:44;;;;;;;10.30;5.63;;;1.10;99.90;;;;;;5011480;28;20036;-75
2023/03/12 04:23:10;;;;;;;11.63;6.82;;;1.10;99.90;;;;;;5008826;28;20030;-75
2023/03/12 04:25:37;;;;;;;11.27;6.40;;;1.00;99.90;;;;;;5008799;28;20030;-75
2023/03/12 04:28:03;;;;;;;13.90;6.78;;;1.00;99.90;;;;;;5005632;28;20019;-75
2023/03/12 04:30:29;;;;;;;14.38;6.82;;;1.00;99.90;;;;;;5004959;28;20031;-75
2023/03/12 04:32:54;;;;;;;16.33;7.07;;;1.00;99.90;;;;;;5008131;28;20030;-74
2023/03/12 04:35:20;;;;;;;13.05;7.43;;;1.00;99.90;;;;;;4995007;28;20060;-75
2023/03/12 04:37:46;;;;;;;13.85;7.35;;;1.00;99.90;;;;;;5009694;28;20103;-76
2023/03/12 04:40:12;;;;;;;16.20;7.45;;;1.00;99.90;;;;;;5015474;28;20027;-75
2023/03/12 04:42:38;;;;;;;18.17;7.65;;;0.90;99.90;;;;;;5005555;28;20608;-74
2023/03/12 04:45:05;;;;;;;24.25;8.48;;;0.90;99.90;;;;;;4992979;28;20030;-75
2023/03/12 04:47:32;;;;;;;14.63;8.75;;;0.90;99.90;;;;;;5010525;28;20037;-75
2023/03/12 04:49:58;;;;;;;15.93;8.43;;;0.90;99.90;;;;;;5008799;28;20054;-76
2023/03/12 04:52:25;;;;;;;16.20;8.55;;;0.90;99.90;;;;;;4993193;28;20029;-75
2023/03/12 04:54:52;;;;;;;14.00;8.10;;;0.90;99.90;;;;;;5005962;28;20022;-75
2023/03/12 04:57:18;;;;;;;18.52;8.05;;;0.90;99.90;;;;;;5008718;28;20457;-75
2023/03/12 04:59:44;;;;;;;17.77;8.93;;;0.90;99.90;;;;;;5006542;28;20026;-75
2023/03/12 05:02:10;;;;;;;12.55;8.25;;;0.90;99.90;;;;;;5007351;28;20027;-75
2023/03/12 05:04:35;;;;;;;13.25;8.40;;;0.90;99.90;;;;;;5008768;28;20042;-75
2023/03/12 05:07:01;;;;;;;13.25;8.98;;;0.90;99.90;;;;;;5016514;28;20034;-76
2023/03/12 05:09:27;;;;;;;19.88;10.77;;;0.90;99.90;;;;;;5006882;28;20026;-75
2023/03/12 05:11:52;;;;;;;14.90;9.98;;;0.80;99.90;;;;;;5009429;28;20049;-76
2023/03/12 05:14:18;;;;;;;16.52;9.90;;;0.80;99.90;;;;;;5007195;28;20453;-76
2023/03/12 05:16:44;;;;;;;15.43;9.38;;;0.80;99.90;;;;;;4989906;28;20030;-75
2023/03/12 05:19:10;;;;;;;19.40;10.52;;;0.90;99.90;;;;;;5008179;28;20027;-75
2023/03/12 05:21:35;;;;;;;14.98;9.70;;;1.00;99.90;;;;;;4988793;28;20022;-75
2023/03/12 05:24:01;;;;;;;18.55;10.50;;;1.00;99.90;;;;;;5014913;28;20088;-75
2023/03/12 05:26:30;;;;;;;15.30;9.40;;;1.00;99.90;;;;;;5012166;28;20068;-76
2023/03/12 05:28:57;;;;;;;18.30;9.98;;;1.00;99.90;;;;;;4975877;28;20129;-75
2023/03/12 05:31:24;;;;;;;18.90;9.48;;;0.90;99.90;;;;;;5008890;28;20446;-74
2023/03/12 05:33:51;;;;;;;14.15;8.88;;;0.90;99.90;;;;;;5008788;28;20266;-74
2023/03/12 05:36:17;;;;;;;19.33;9.02;;;1.00;99.90;;;;;;5016343;28;20026;-75
2023/03/12 05:38:42;;;;;;;20.35;9.07;;;1.00;99.90;;;;;;5013466;28;20029;-75
2023/03/12 05:41:16;;;;;;;17.13;8.90;;;0.90;99.90;;;;;;4992908;28;20061;-75
2023/03/12 05:43:43;;;;;;;14.88;7.82;;;1.00;99.90;;;;;;5010980;28;20377;-75
2023/03/12 05:46:09;;;;;;;16.25;8.15;;;1.00;99.90;;;;;;5017159;28;20022;-74
2023/03/12 05:48:35;;;;;;;16.55;9.43;;;1.00;99.90;;;;;;5009355;28;20022;-75
2023/03/12 05:51:00;;;;;;;14.65;7.90;;;1.00;99.90;;;;;;5014928;28;20057;-75
2023/03/12 05:53:26;;;;;;;13.20;8.80;;;1.90;99.90;;;;;;5013795;28;20034;-74
2023/03/12 05:55:52;;;;;;;15.88;8.15;;;1.60;99.90;;;;;;5011396;28;20026;-75
2023/03/12 05:58:17;;;;;;;14.90;8.38;;;1.40;99.90;;;;;;5013200;28;20217;-74
2023/03/12 06:00:44;;;;;;;16.45;7.50;;;1.30;99.90;;;;;;4993657;28;20497;-75
2023/03/12 06:03:10;;;;;;;12.68;8.23;;;1.30;99.90;;;;;;4991827;28;20029;-77
2023/03/12 06:05:36;;;;;;;17.42;8.60;;;1.20;99.90;;;;;;5010686;28;20105;-76
2023/03/12 06:08:03;;;;;;;14.65;7.80;;;1.20;99.90;;;;;;5013616;28;20037;-75
2023/03/12 06:10:29;;;;;;;13.88;8.02;;;1.20;99.90;;;;;;5015690;28;20029;-76
2023/03/12 06:12:56;;;;;;;12.10;7.70;;;1.20;99.90;;;;;;5015108;28;20037;-75
2023/03/12 06:15:22;;;;;;;15.85;7.97;;;1.20;99.90;;;;;;5012172;28;20033;-75
2023/03/12 06:17:48;;;;;;;12.13;7.60;;;1.20;99.90;;;;;;5010029;28;20029;-76
2023/03/12 06:20:14;;;;;;;14.23;8.23;;;1.20;99.90;;;;;;5016731;28;20423;-76
2023/03/12 06:22:40;;;;;;;13.88;7.60;;;1.20;99.90;;;;;;5011094;28;20033;-75
2023/03/12 06:25:06;;;;;;;19.17;8.10;;;1.20;99.90;;;;;;4993486;28;20025;-76
2023/03/12 06:27:31;;;;;;;13.05;7.95;;;1.20;99.90;;;;;;5006604;28;20018;-75
2023/03/12 06:29:57;;;;;;;13.98;8.40;;;1.20;99.90;;;;;;5011261;28;20144;-75
2023/03/12 06:32:23;;;;;;;18.05;8.98;;;1.30;99.90;;;;;;5005506;28;20444;-76
2023/03/12 06:34:49;;;;;;;14.95;8.52;;;1.20;99.90;;;;;;5003300;28;20033;-76
2023/03/12 06:37:14;;;;;;;16.52;9.15;;;1.30;99.90;;;;;;5006645;28;20385;-75
2023/03/12 06:39:40;;;;;;;14.80;9.25;;;1.30;99.90;;;;;;4989165;28;20069;-75
2023/03/12 06:42:06;;;;;;;17.05;9.40;;;1.40;99.90;;;;;;5008303;28;20029;-76
2023/03/12 06:44:32;;;;;;;17.67;9.55;;;1.30;99.90;;;;;;4989708;28;20030;-75
2023/03/12 06:46:58;;;;;;;17.80;9.95;;;1.40;99.90;;;;;;4987226;28;20033;-76
2023/03/12 06:49:24;;;;;;;19.08;9.68;;;1.40;99.90;;;;;;5007416;28;20029;-75
2023/03/12 06:51:50;;;;;;;17.55;9.60;;;1.40;99.90;;;;;;5003917;28;20041;-76
2023/03/12 06:54:16;;;;;;;15.88;9.20;;;1.40;99.90;;;;;;4986924;28;20034;-76
2023/03/12 06:56:41;;;;;;;16.15;8.38;;;1.40;99.90;;;;;;5005050;28;20026;-76
2023/03/12 06:59:07;;;;;;;17.05;8.57;;;1.40;99.90;;;;;;5004246;28;20061;-75
2023/03/12 07:01:33;;;;;;;13.88;8.50;;;1.40;99.90;;;;;;5010779;28;20058;-75
2023/03/12 07:03:59;;;;;;;16.42;8.90;;;1.50;99.90;;;;;;5006458;28;20030;-76
2023/03/12 07:06:25;;;;;;;18.73;8.75;;;1.50;99.90;;;;;;5004255;28;20117;-75
2023/03/12 07:08:51;;;;;;;15.13;8.13;;;1.60;99.90;;;;;;5005408;28;20041;-75
2023/03/12 07:11:17;;;;;;;14.40;7.60;;;1.70;99.90;;;;;;5004396;28;20104;-76
2023/03/12 07:13:43;;;;;;;11.45;7.85;;;1.70;99.90;;;;;;5003892;28;20041;-75
2023/03/12 07:16:10;;;;;;;12.43;7.93;;;1.70;99.90;;;;;;5006649;28;20413;-76
2023/03/12 07:18:36;;;;;;;12.15;7.88;;;1.70;99.90;;;;;;5002851;28;20429;-76
2023/03/12 07:21:02;;;;;;;11.07;8.13;;;1.80;99.90;;;;;;5007961;28;20080;-76
2023/03/12 07:23:28;;;;;;;11.18;7.90;;;1.80;99.90;;;;;;5004136;28;20037;-75
2023/03/12 07:25:54;;;;;;;13.52;8.50;;;1.80;99.90;;;;;;5006101;28;20034;-76
2023/03/12 07:28:21;;;;;;;12.85;8.52;;;1.80;99.90;;;;;;5004467;28;20030;-75
2023/03/12 07:30:50;;;;;;;12.63;8.65;;;1.80;99.90;;;;;;4987611;28;20034;-76
2023/03/12 07:33:18;;;;;;;14.15;8.07;;;1.80;99.90;;;;;;5003658;28;20026;-76
2023/03/12 07:35:45;;;;;;;13.02;7.85;;;1.70;99.90;;;;;;5002227;28;20258;-76
2023/03/12 07:38:11;;;;;;;11.30;8.40;;;1.70;99.90;;;;;;5003978;28;20022;-75
2023/03/12 07:40:36;;;;;;;12.38;7.97;;;1.80;99.90;;;;;;5002619;28;20645;-75
2023/03/12 07:43:05;;;;;;;12.20;8.20;;;1.80;99.90;;;;;;5000655;28;20113;-75
2023/03/12 07:45:31;;;;;;;13.05;7.85;;;1.80;99.90;;;;;;5001754;28;20498;-76
2023/03/12 07:47:57;;;;;;;9.43;7.85;;;1.90;99.90;;;;;;5006771;28;20034;-76
2023/03/12 07:50:22;;;;;;;11.23;7.47;;;1.90;99.90;;;;;;5001904;28;20109;-75
2023/03/12 07:52:48;;;;;;;9.63;7.10;;;1.90;99.90;;;;;;5003513;28;20033;-75
2023/03/12 07:55:15;;;;;;;9.90;7.20;;;2.00;99.90;;;;;;5005665;28;20037;-76
2023/03/12 07:57:41;;;;;;;9.43;7.10;;;2.00;99.90;;;;;;5007880;28;20109;-75
2023/03/12 08:00:09;;;;;;;12.40;7.30;;;2.00;99.90;;;;;;5021365;28;20022;-75
2023/03/12 08:02:35;;;;;;;9.18;6.75;;;2.00;99.90;;;;;;5009269;28;20030;-75
2023/03/12 08:05:00;;;;;;;13.07;7.28;;;2.00;99.90;;;;;;5008664;28;20034;-76
2023/03/12 08:07:31;;;;;;;10.15;6.25;;;2.10;99.90;;;;;;5003598;28;20030;-75
2023/03/12 08:09:58;;;;;;;11.20;5.70;;;2.20;99.90;;;;;;5009670;28;20466;-75
2023/03/12 08:12:24;;;;;;;12.82;6.32;;;2.20;99.90;;;;;;5009731;28;20026;-75
2023/03/12 08:14:49;;;;;;;9.45;6.43;;;2.30;99.90;;;;;;5009549;28;20504;-75
2023/03/12 08:17:15;;;;;;;9.93;6.35;;;2.40;99.90;;;;;;5008005;28;20444;-75
2023/03/12 08:19:41;;;;;;;9.48;6.03;;;2.50;99.90;;;;;;5007054;28;20552;-76
2023/03/12 08:22:07;;;;;;;11.13;5.60;;;2.50;99.90;;;;;;5006909;28;20030;-76
2023/03/12 08:24:33;;;;;;;8.85;6.03;;;2.60;99.90;;;;;;5006100;28;20081;-76
2023/03/12 08:26:59;;;;;;;11.75;6.15;;;2.70;99.90;;;;;;5008521;28;20035;-75
2023/03/12 08:29:25;;;;;;;10.75;6.00;;;2.70;99.90;;;;;;5006070;28;20033;-77
2023/03/12 08:31:51;;;;;;;10.35;5.78;;;2.70;99.90;;;;;;5004207;28;20561;-75
2023/03/12 08:34:17;;;;;;;6.40;4.97;;;2.70;99.90;;;;;;5008921;28;20425;-76
2023/03/12 08:36:42;;;;;;;9.35;5.30;;;2.80;99.90;;;;;;5006204;28;20029;-76
2023/03/12 08:39:08;;;;;;;10.68;5.57;;;2.80;99.90;;;;;;5004875;28;20022;-75
2023/03/12 08:41:34;;;;;;;8.30;6.00;;;2.80;99.90;;;;;;5006175;28;20030;-76
2023/03/12 08:43:59;;;;;;;12.60;5.20;;;2.90;99.90;;;;;;4986977;28;20076;-76
2023/03/12 08:46:25;;;;;;;12.52;5.82;;;2.90;99.90;;;;;;5006196;28;20393;-75
2023/03/12 08:48:51;;;;;;;11.65;5.95;;;3.00;99.90;;;;;;5009403;28;20041;-75
2023/03/12 08:51:17;;;;;;;8.98;4.60;;;3.00;99.90;;;;;;5004430;28;20546;-75
2023/03/12 08:53:43;;;;;;;9.18;4.82;;;2.90;99.90;;;;;;5006985;28;20081;-75
2023/03/12 08:56:09;;;;;;;8.55;4.65;;;2.90;99.90;;;;;;5007672;28;20116;-75
2023/03/12 08:58:35;;;;;;;7.82;4.63;;;3.00;99.90;;;;;;5008738;28;20315;-76
2023/03/12 09:01:01;;;;;;;8.27;4.90;;;3.00;99.90;;;;;;5003253;28;20022;-76
2023/03/12 09:03:26;;;;;;;9.52;5.72;;;3.10;99.90;;;;;;5006590;28;20066;-76
2023/03/12 09:06:11;;;;;;;9.10;5.05;;;3.10;99.90;;;;;;5005126;28;20034;-75
2023/03/12 09:08:41;;;;;;;8.65;4.50;;;3.10;99.90;;;;;;5005702;28;20037;-75
2023/03/12 09:11:08;;;;;;;8.00;5.22;;;3.10;99.90;;;;;;5004535;28;20033;-75
2023/03/12 09:13:35;;;;;;;8.15;4.72;;;3.10;99.90;;;;;;5005990;28;20029;-74
2023/03/12 09:16:02;;;;;;;10.98;4.55;;;3.20;99.90;;;;;;5004430;28;20034;-74
2023/03/12 09:18:32;;;;;;;8.38;4.53;;;3.20;99.90;;;;;;4987857;28;20022;-75
2023/03/12 09:20:58;;;;;;;14.32;5.13;;;3.20;99.90;;;;;;4989137;28;20169;-75
2023/03/12 09:23:25;;;;;;;10.25;4.47;;;3.20;99.90;;;;;;4988611;28;20166;-76
2023/03/12 09:25:51;;;;;;;7.28;4.47;;;3.30;99.90;;;;;;5018824;23;20428;-72
2023/03/12 09:28:18;;;;;;;9.15;5.05;;;3.30;99.90;;;;;;5003876;28;20018;-73
2023/03/12 09:30:44;;;;;;;7.85;4.38;;;3.40;99.90;;;;;;5004488;28;20437;-72
2023/03/12 09:33:09;;;;;;;11.68;4.57;;;3.40;99.90;;;;;;5004506;28;20021;-72
2023/03/12 09:35:36;;;;;;;6.30;4.30;;;3.50;99.90;;;;;;4985208;28;20048;-72
2023/03/12 09:38:03;;;;;;;9.60;4.72;;;3.50;99.90;;;;;;5004420;28;20580;-72
2023/03/12 09:40:31;;;;;;;7.57;4.65;;;3.50;99.90;;;;;;5003164;28;20416;-73
2023/03/12 09:43:05;;;;;;;7.65;4.57;;;3.40;99.90;;;;;;5002644;28;20026;-74
2023/03/12 09:45:41;;;;;;;7.45;4.25;;;3.40;99.90;;;;;;5003765;28;20033;-74
2023/03/12 09:48:17;;;;;;;9.25;4.75;;;3.50;99.90;;;;;;4983937;28;20026;-73
2023/03/12 09:50:47;;;;;;;9.70;4.78;;;3.60;99.90;;;;;;5003520;28;20029;-73
2023/03/12 09:53:32;;;;;;;9.68;4.30;;;3.70;99.90;;;;;;5003901;28;20548;-72
2023/03/12 09:56:01;;;;;;;9.48;4.22;;;3.90;99.90;;;;;;5000216;28;20026;-72
2023/03/12 09:58:30;;;;;;;8.13;4.45;;;3.90;99.90;;;;;;5000904;28;20416;-73
2023/03/12 10:01:11;;;;;;;6.30;3.83;;;4.00;99.90;;;;;;5001452;28;20026;-72
2023/03/12 10:04:02;;;;;;;7.80;4.18;;;4.00;99.90;;;;;;5001930;28;20224;-72
2023/03/12 10:06:35;;;;;;;6.70;4.20;;;4.10;99.90;;;;;;5003246;28;20049;-73
2023/03/12 10:09:32;;;;;;;7.40;4.00;;;4.20;99.90;;;;;;5003532;28;20026;-73
2023/03/12 10:12:27;;;;;;;11.15;4.47;;;4.20;99.90;;;;;;4999052;28;20128;-72
2023/03/12 10:15:11;;;;;;;7.80;3.45;;;4.30;99.90;;;;;;5000766;28;20410;-72
2023/03/12 10:17:45;;;;;;;9.73;3.83;;;4.40;99.90;;;;;;5001110;28;20029;-72
2023/03/12 10:20:25;;;;;;;7.90;4.32;;;4.40;99.90;;;;;;4999836;28;20068;-72
2023/03/12 10:23:01;;;;;;;7.45;3.90;;;4.50;99.90;;;;;;5018447;28;20026;-72
2023/03/12 10:25:37;;;;;;;11.73;4.10;;;4.50;99.90;;;;;;5001978;28;20036;-73
2023/03/12 10:28:31;;;;;;;5.70;3.60;;;4.60;99.90;;;;;;5003999;28;20026;-73
2023/03/12 10:31:02;;;;;;;6.72;3.50;;;4.60;99.90;;;;;;5003608;28;20037;-72
2023/03/12 10:33:51;;;;;;;8.50;3.58;;;4.60;99.90;;;;;;5031103;28;20048;-72
2023/03/12 10:36:21;;;;;;;8.02;3.40;;;4.70;99.90;;;;;;5003645;28;20118;-73
2023/03/12 10:38:48;;;;;;;7.45;3.75;;;4.70;99.90;;;;;;5000888;28;20033;-72
2023/03/12 10:41:27;;;;;;;6.50;3.15;;;4.80;99.90;;;;;;5002402;28;20065;-72
2023/03/12 10:43:55;;;;;;;6.93;3.85;;;4.80;99.90;;;;;;5009467;28;20382;-73
2023/03/12 10:46:39;;;;;;;7.22;3.35;;;4.80;99.90;;;;;;5006998;28;20015;-73
2023/03/12 10:49:20;;;;;;;10.73;3.60;;;4.70;99.90;;;;;;5002962;28;20053;-72
2023/03/12 10:52:17;;;;;;;5.05;3.60;;;4.70;99.90;;;;;;5003839;28;20037;-73
2023/03/12 10:54:45;;;;;;;8.70;3.90;;;4.80;99.90;;;;;;4984754;28;20452;-73
2023/03/12 10:57:12;;;;;;;7.50;3.83;;;4.70;99.90;;;;;;5001824;28;20394;-74
2023/03/12 10:59:44;;;;;;;6.55;3.85;;;4.80;99.90;;;;;;5002437;28;20077;-73
2023/03/12 11:02:31;;;;;;;7.43;3.85;;;4.80;99.90;;;;;;5002068;28;20053;-73
2023/03/12 11:04:59;;;;;;;8.65;4.38;;;4.70;99.90;;;;;;5019102;28;20096;-73
2023/03/12 11:07:34;;;;;;;8.07;3.85;;;4.70;99.90;;;;;;4984166;28;20525;-74
2023/03/12 11:10:31;;;;;;;8.48;4.07;;;4.60;99.90;;;;;;5007485;28;20489;-74
2023/03/12 11:13:00;;;;;;;8.98;4.38;;;4.60;99.90;;;;;;5003734;28;20029;-73
2023/03/12 11:15:47;;;;;;;11.48;4.80;;;4.60;99.90;;;;;;5005196;28;20058;-73
2023/03/12 11:18:28;;;;;;;14.23;4.32;;;4.60;99.90;;;;;;5002745;28;20493;-72
2023/03/12 11:21:12;;;;;;;5.97;3.45;;;4.50;99.90;;;;;;5003890;28;20442;-74
2023/03/12 11:23:42;;;;;;;9.50;3.80;;;4.50;99.90;;;;;;5001511;28;20036;-74
2023/03/12 11:26:19;;;;;;;8.80;3.50;;;4.40;99.90;;;;;;4985486;28;20052;-72
2023/03/12 11:29:08;;;;;;;9.32;3.95;;;4.40;99.90;;;;;;4999939;28;20026;-71
2023/03/12 11:31:40;;;;;;;8.30;4.18;;;4.40;99.90;;;;;;5023007;28;20037;-72
2023/03/12 11:34:20;;;;;;;6.18;3.72;;;4.40;99.90;;;;;;5005193;28;20073;-72
2023/03/12 11:36:53;;;;;;;12.10;3.90;;;4.30;99.90;;;;;;4989342;28;20084;-72
2023/03/12 11:39:50;;;;;;;8.95;3.63;;;4.40;99.90;;;;;;5006146;28;20512;-73
2023/03/12 11:42:27;;;;;;;8.52;3.28;;;4.40;99.90;;;;;;5004135;28;20023;-73
2023/03/12 11:45:05;;;;;;;7.20;3.25;;;4.50;99.90;;;;;;5005161;28;20163;-72
2023/03/12 11:48:05;;;;;;;5.05;3.47;;;4.60;99.90;;;;;;5003616;28;20033;-72
2023/03/12 11:50:37;;;;;;;9.40;3.70;;;4.50;99.90;;;;;;5003524;28;20117;-74
2023/03/12 11:53:28;;;;;;;5.38;3.00;;;4.60;99.90;;;;;;4985449;28;20038;-74
2023/03/12 11:56:22;;;;;;;137.60;62.17;;;4.90;99.90;;;;;;5008309;28;20068;-73
2023/03/12 11:59:14;;;;;;;92.50;45.17;;;4.90;99.90;;;;;;5005546;28;20028;-74
2023/03/12 12:01:56;;;;;;;65.35;33.00;;;4.70;99.90;;;;;;5007127;28;20101;-74
2023/03/12 12:05:07;;;;;;;26.63;16.65;;;4.60;99.90;;;;;;5036950;28;20033;-74
2023/03/12 12:08:08;;;;;;;9.43;3.80;;;4.60;99.90;;;;;;5006460;28;20030;-74
2023/03/12 12:10:54;;;;;;;8.32;3.42;;;4.70;99.90;;;;;;5002209;28;20117;-73
2023/03/12 12:13:59;;;;;;;7.88;3.13;;;4.70;99.90;;;;;;5005847;28;20030;-73
2023/03/12 12:16:50;;;;;;;7.88;3.03;;;4.70;99.90;;;;;;5004249;28;20026;-75
2023/03/12 12:19:37;;;;;;;6.65;3.00;;;4.80;99.90;;;;;;5008904;28;20101;-74
2023/03/12 12:22:49;;;;;;;9.52;3.50;;;4.70;99.90;;;;;;5018121;28;20042;-74
2023/03/12 12:25:21;;;;;;;9.63;3.97;;;4.60;99.90;;;;;;4953860;29;20046;-73
2023/03/12 12:28:17;;;;;;;8.60;3.15;;;4.60;99.90;;;;;;4950911;29;20503;-74
2023/03/12 12:31:00;;;;;;;9.25;3.00;;;4.60;99.90;;;;;;4951387;29;20085;-74
2023/03/12 12:33:53;;;;;;;9.90;3.05;;;4.50;99.90;;;;;;4942326;29;20158;-73
2023/03/12 12:36:19;;;;;;;10.13;3.38;;;4.50;99.90;;;;;;4953498;29;20427;-72
2023/03/12 12:39:16;;;;;;;10.20;3.28;;;4.50;99.90;;;;;;4934988;29;20165;-74
2023/03/12 12:41:56;;;;;;;8.35;2.25;;;4.50;99.90;;;;;;4935411;29;20039;-76
2023/03/12 12:44:38;;;;;;;5.30;2.17;;;4.40;99.90;;;;;;4950621;29;20039;-74
2023/03/12 12:47:12;;;;;;;4.47;2.38;;;4.40;99.90;;;;;;4928324;29;20039;-73
2023/03/12 12:49:47;;;;;;;5.97;2.40;;;4.40;99.90;;;;;;4937993;29;20066;-73
2023/03/12 12:52:20;;;;;;;4.97;2.25;;;4.30;99.90;;;;;;4939231;29;20520;-74
2023/03/12 12:55:05;;;;;;;7.10;2.25;;;4.20;99.90;;;;;;4951987;28;20034;-74
2023/03/12 12:58:00;;;;;;;6.90;2.20;;;4.30;99.90;;;;;;4990182;28;20077;-72
2023/03/12 13:00:38;;;;;;;7.00;2.80;;;4.40;99.90;;;;;;5008879;28;20041;-73
2023/03/12 13:03:03;;;;;;;6.97;2.05;;;4.60;99.90;;;;;;5010209;28;20029;-74
2023/03/12 13:05:35;;;;;;;6.70;2.00;;;4.40;99.90;;;;;;4986833;28;20485;-73
2023/03/12 13:08:02;;;;;;;5.75;1.95;;;4.40;99.90;;;;;;5006119;28;20044;-74